createdAt,value
2019-05-12T00:00:42.879Z,2.70
2019-05-12T00:03:12.582Z,2.90
2019-05-12T00:05:42.068Z,3.03
2019-05-12T00:08:11.545Z,2.83
2019-05-12T00:10:40.969Z,3.07
2019-05-12T00:13:10.349Z,3.00
2019-05-12T00:15:39.890Z,3.10
2019-05-12T00:18:09.477Z,3.27
2019-05-12T00:20:38.970Z,5.33
2019-05-12T00:23:23.434Z,4.03
2019-05-12T00:25:39.588Z,4.30
2019-05-12T00:28:09.079Z,4.03
2019-05-12T00:30:42.192Z,3.43
2019-05-12T00:33:11.683Z,3.40
2019-05-12T00:35:41.379Z,3.47
2019-05-12T00:38:10.857Z,3.60
2019-05-12T00:40:40.279Z,3.33
2019-05-12T00:43:10.126Z,3.50
2019-05-12T00:45:39.835Z,3.53
2019-05-12T00:48:09.824Z,4.10
2019-05-12T00:50:39.310Z,3.80
2019-05-12T00:53:09.535Z,4.03
2019-05-12T00:55:39.099Z,4.00
2019-05-12T00:58:09.231Z,4.40
2019-05-12T01:00:41.127Z,3.60
2019-05-12T01:03:10.345Z,3.80
2019-05-12T01:05:39.738Z,4.07
2019-05-12T01:08:09.724Z,4.43
2019-05-12T01:10:39.589Z,3.57
2019-05-12T01:13:09.339Z,3.97
2019-05-12T01:15:38.895Z,4.53
2019-05-12T01:18:09.861Z,4.17
2019-05-12T01:20:39.522Z,4.47
2019-05-12T01:23:09.453Z,4.23
2019-05-12T01:25:39.864Z,4.87
2019-05-12T01:28:09.455Z,4.20
2019-05-12T01:30:39.422Z,5.30
2019-05-12T01:33:09.310Z,4.70
2019-05-12T01:35:39.277Z,5.10
2019-05-12T01:38:09.063Z,5.37
2019-05-12T01:40:39.718Z,6.00
2019-05-12T01:43:09.401Z,4.57
2019-05-12T01:45:38.882Z,5.30
2019-05-12T01:48:09.339Z,5.60
2019-05-12T01:50:39.272Z,5.07
2019-05-12T01:53:08.985Z,5.40
2019-05-12T01:55:39.045Z,5.87
2019-05-12T01:58:09.152Z,6.30
2019-05-12T02:00:39.209Z,6.10
2019-05-12T02:03:09.655Z,5.90
2019-05-12T02:05:42.341Z,6.27
2019-05-12T02:08:18.415Z,5.73
2019-05-12T02:10:48.123Z,5.33
2019-05-12T02:13:18.316Z,6.07
2019-05-12T02:15:48.568Z,5.80
2019-05-12T02:18:18.221Z,5.47
2019-05-12T02:20:48.326Z,5.90
2019-05-12T02:23:18.095Z,6.57
2019-05-12T02:25:48.351Z,5.70
2019-05-12T02:28:18.092Z,5.90
2019-05-12T02:30:50.329Z,5.77
2019-05-12T02:33:18.911Z,5.73
2019-05-12T02:35:48.299Z,7.23
2019-05-12T02:38:17.725Z,6.10
2019-05-12T02:40:47.198Z,6.50
2019-05-12T02:43:16.676Z,6.47
2019-05-12T02:45:46.198Z,6.70
2019-05-12T02:48:15.568Z,7.43
2019-05-12T02:50:45.367Z,7.07
2019-05-12T02:53:15.279Z,7.60
2019-05-12T02:55:46.272Z,8.40
2019-05-12T02:58:17.590Z,9.67
2019-05-12T03:00:47.993Z,9.33
2019-05-12T03:03:19.925Z,11.20
2019-05-12T03:05:51.063Z,10.17
2019-05-12T03:08:25.617Z,9.77
2019-05-12T03:10:55.191Z,9.20
2019-05-12T03:13:25.413Z,10.30
2019-05-12T03:15:55.184Z,9.37
2019-05-12T03:18:25.392Z,9.20
2019-05-12T03:20:55.172Z,9.50
2019-05-12T03:23:25.015Z,9.80
2019-05-12T03:25:54.902Z,9.00
2019-05-12T03:28:25.798Z,8.40
2019-05-12T03:30:57.542Z,7.53
2019-05-12T03:33:34.391Z,8.63
2019-05-12T03:36:00.726Z,8.13
2019-05-12T03:38:29.143Z,8.80
2019-05-12T03:40:58.800Z,9.73
2019-05-12T03:43:28.173Z,9.23
2019-05-12T03:45:57.691Z,8.50
2019-05-12T03:48:27.187Z,10.47
2019-05-12T03:50:56.584Z,13.37
2019-05-12T03:53:26.105Z,19.90
2019-05-12T03:55:55.591Z,11.60
2019-05-12T03:58:25.723Z,11.53
2019-05-12T04:00:55.534Z,11.57
2019-05-12T04:03:25.203Z,9.73
2019-05-12T04:05:55.497Z,9.60
2019-05-12T04:08:25.111Z,7.97
2019-05-12T04:10:54.963Z,6.93
2019-05-12T04:13:26.606Z,7.03
2019-05-12T04:15:55.912Z,6.83
2019-05-12T04:18:25.461Z,7.70
2019-05-12T04:20:55.041Z,8.03
2019-05-12T04:23:25.241Z,8.87
2019-05-12T04:26:06.811Z,10.30
2019-05-12T04:28:25.805Z,8.63
2019-05-12T04:30:55.425Z,9.00
2019-05-12T04:33:25.874Z,8.33
2019-05-12T04:35:55.619Z,8.47
2019-05-12T04:38:25.163Z,9.10
2019-05-12T04:40:55.492Z,8.00
2019-05-12T04:43:25.634Z,8.20
2019-05-12T04:45:55.304Z,7.57
2019-05-12T04:48:25.694Z,7.20
2019-05-12T04:50:55.623Z,7.43
2019-05-12T04:53:25.433Z,7.03
2019-05-12T04:56:07.419Z,7.73
2019-05-12T04:58:26.442Z,7.20
2019-05-12T05:00:55.898Z,7.17
2019-05-12T05:03:25.305Z,7.90
2019-05-12T05:05:55.062Z,7.47
2019-05-12T05:08:24.810Z,6.97
2019-05-12T05:10:54.899Z,7.43
2019-05-12T05:13:25.117Z,7.57
2019-05-12T05:15:55.037Z,7.20
2019-05-12T05:18:24.748Z,8.23
2019-05-12T05:20:54.256Z,9.37
2019-05-12T05:23:24.276Z,8.67
2019-05-12T05:25:53.974Z,8.80
2019-05-12T05:28:23.775Z,8.85
2019-05-12T05:30:53.580Z,9.50
2019-05-12T05:33:23.840Z,9.75
2019-05-12T05:35:54.270Z,9.60
2019-05-12T05:38:23.859Z,9.68
2019-05-12T05:40:54.163Z,9.53
2019-05-12T05:43:24.275Z,10.28
2019-05-12T05:46:02.143Z,9.80
2019-05-12T05:48:25.041Z,9.77
2019-05-12T05:50:54.528Z,9.87
2019-05-12T05:53:24.334Z,10.67
2019-05-12T05:55:56.210Z,9.40
2019-05-12T05:58:26.103Z,9.30
2019-05-12T06:01:02.967Z,10.33
2019-05-12T06:03:27.997Z,7.53
2019-05-12T06:06:01.516Z,8.07
2019-05-12T06:08:28.942Z,9.27
2019-05-12T06:10:58.313Z,7.60
2019-05-12T06:13:31.782Z,8.17
2019-05-12T06:15:58.999Z,8.33
2019-05-12T06:18:29.214Z,8.10
2019-05-12T06:20:58.639Z,7.13
2019-05-12T06:23:28.932Z,7.00
2019-05-12T06:25:59.853Z,5.97
2019-05-12T06:28:31.238Z,8.00
2019-05-12T06:31:00.495Z,8.23
2019-05-12T06:33:31.475Z,7.70
2019-05-12T06:36:03.220Z,9.23
2019-05-12T06:38:37.136Z,7.67
2019-05-12T06:41:03.742Z,7.83
2019-05-12T06:43:35.301Z,7.10
2019-05-12T06:46:04.476Z,7.83
2019-05-12T06:48:33.961Z,7.37
2019-05-12T06:51:04.141Z,5.87
2019-05-12T06:53:33.971Z,6.17
2019-05-12T06:56:04.531Z,5.77
2019-05-12T06:58:34.502Z,6.97
2019-05-12T07:01:10.290Z,7.20
2019-05-12T07:03:37.267Z,8.30
2019-05-12T07:06:09.265Z,5.97
2019-05-12T07:08:38.513Z,6.07
2019-05-12T07:11:08.330Z,5.80
2019-05-12T07:13:37.821Z,5.47
2019-05-12T07:16:19.702Z,5.70
2019-05-12T07:18:48.918Z,5.73
2019-05-12T07:21:21.053Z,5.63
2019-05-12T07:23:49.568Z,5.30
2019-05-12T07:26:19.703Z,6.00
2019-05-12T07:28:49.444Z,5.57
2019-05-12T07:31:19.568Z,5.17
2019-05-12T07:33:49.042Z,4.90
2019-05-12T07:36:19.833Z,5.00
2019-05-12T07:38:55.810Z,4.90
2019-05-12T07:41:23.884Z,5.00
2019-05-12T07:43:59.558Z,4.90
2019-05-12T07:46:27.996Z,4.67
2019-05-12T07:48:57.642Z,4.53
2019-05-12T07:51:30.507Z,4.90
2019-05-12T07:53:58.937Z,4.53
2019-05-12T07:56:32.755Z,4.83
2019-05-12T07:58:59.964Z,4.77
2019-05-12T08:01:29.461Z,4.47
2019-05-12T08:04:01.247Z,5.20
2019-05-12T08:06:34.676Z,5.53
2019-05-12T08:09:01.346Z,5.63
2019-05-12T08:11:36.731Z,5.07
2019-05-12T08:14:03.582Z,4.43
2019-05-12T08:16:36.794Z,4.77
2019-05-12T08:19:04.560Z,5.07
2019-05-12T08:21:42.318Z,5.20
2019-05-12T08:24:06.275Z,4.37
2019-05-12T08:26:35.778Z,4.33
2019-05-12T08:29:10.265Z,4.80
2019-05-12T08:31:40.404Z,4.47
2019-05-12T08:34:07.762Z,3.97
2019-05-12T08:36:37.299Z,3.87
2019-05-12T08:39:11.727Z,4.30
2019-05-12T08:41:39.514Z,3.63
2019-05-12T08:44:09.058Z,3.47
2019-05-12T08:46:45.688Z,4.07
2019-05-12T08:49:09.621Z,4.70
2019-05-12T08:51:40.310Z,3.43
2019-05-12T08:54:09.823Z,3.70
2019-05-12T08:56:39.221Z,3.93
2019-05-12T08:59:18.461Z,4.13
2019-05-12T09:01:48.644Z,4.27
2019-05-12T09:04:18.523Z,3.93
2019-05-12T09:06:56.377Z,4.07
2019-05-12T09:09:23.246Z,3.72
2019-05-12T09:11:54.243Z,3.52
2019-05-12T09:14:24.025Z,3.70
2019-05-12T09:17:02.009Z,4.17
2019-05-12T09:19:27.138Z,4.07
2019-05-12T09:21:55.811Z,4.20
2019-05-12T09:24:27.316Z,4.40
2019-05-12T09:26:58.919Z,4.50
2019-05-12T09:29:27.697Z,4.63
2019-05-12T09:31:59.240Z,4.70
2019-05-12T09:34:29.373Z,4.47
2019-05-12T09:36:59.982Z,4.45
2019-05-12T09:39:34.037Z,4.35
2019-05-12T09:42:03.603Z,4.75
2019-05-12T09:44:34.033Z,4.62
2019-05-12T09:47:04.388Z,4.50
2019-05-12T09:49:39.211Z,4.27
2019-05-12T09:52:06.183Z,4.97
2019-05-12T09:54:40.911Z,3.77
2019-05-12T09:57:07.742Z,3.90
2019-05-12T09:59:37.256Z,4.20
2019-05-12T10:02:10.570Z,3.87
2019-05-12T10:04:38.030Z,3.70
2019-05-12T10:07:07.409Z,3.70
2019-05-12T10:09:36.809Z,3.60
2019-05-12T10:12:06.353Z,4.00
2019-05-12T10:14:35.845Z,3.70
2019-05-12T10:17:05.240Z,4.13
2019-05-12T10:19:34.663Z,3.58
2019-05-12T10:22:04.167Z,5.17
2019-05-12T10:24:41.599Z,3.77
2019-05-12T10:27:04.947Z,3.77
2019-05-12T10:29:34.355Z,3.20
2019-05-12T10:32:04.139Z,2.95
2019-05-12T10:34:35.830Z,3.58
2019-05-12T10:37:04.979Z,3.40
2019-05-12T10:39:34.427Z,3.58
2019-05-12T10:42:03.973Z,3.95
2019-05-12T10:44:39.172Z,4.27
2019-05-12T10:47:06.447Z,3.02
2019-05-12T10:49:35.929Z,3.45
2019-05-12T10:52:05.438Z,2.90
2019-05-12T10:54:34.944Z,3.57
2019-05-12T10:57:04.986Z,3.20
2019-05-12T10:59:38.840Z,2.67
2019-05-12T11:02:05.845Z,3.27
2019-05-12T11:04:40.764Z,2.98
2019-05-12T11:07:06.955Z,3.47
2019-05-12T11:09:36.467Z,3.45
2019-05-12T11:12:06.011Z,3.05
2019-05-12T11:14:35.449Z,3.00
2019-05-12T11:17:08.227Z,3.65
2019-05-12T11:19:40.617Z,3.22
2019-05-12T11:22:09.683Z,3.03
2019-05-12T11:24:39.188Z,3.00
2019-05-12T11:27:08.687Z,2.80
2019-05-12T11:29:46.049Z,2.92
2019-05-12T11:32:09.483Z,2.67
2019-05-12T11:34:38.967Z,3.30
2019-05-12T11:37:09.139Z,3.17
2019-05-12T11:39:44.114Z,2.85
2019-05-12T11:42:09.847Z,2.85
2019-05-12T11:44:39.454Z,3.30
2019-05-12T11:47:08.840Z,2.90
2019-05-12T11:49:38.238Z,2.80
2019-05-12T11:52:15.434Z,2.50
2019-05-12T11:54:41.261Z,2.70
2019-05-12T11:57:10.049Z,2.50
2019-05-12T11:59:39.476Z,2.45
2019-05-12T12:02:08.948Z,3.00
2019-05-12T12:04:47.675Z,2.60
2019-05-12T12:07:17.335Z,2.50
2019-05-12T12:09:49.560Z,2.67
2019-05-12T12:12:17.963Z,3.05
2019-05-12T12:14:50.429Z,3.12
2019-05-12T12:17:25.095Z,3.30
2019-05-12T12:19:49.815Z,3.15
2019-05-12T12:22:20.404Z,3.22
2019-05-12T12:24:50.452Z,2.60
2019-05-12T12:27:20.528Z,2.52
2019-05-12T12:29:50.096Z,3.00
2019-05-12T12:32:20.490Z,2.67
2019-05-12T12:34:50.067Z,2.87
2019-05-12T12:37:24.195Z,3.08
2019-05-12T12:39:50.859Z,2.98
2019-05-12T12:42:20.297Z,2.50
2019-05-12T12:44:53.460Z,2.52
2019-05-12T12:47:20.917Z,2.70
2019-05-12T12:49:50.385Z,2.60
2019-05-12T12:52:19.871Z,2.77
2019-05-12T12:54:49.388Z,2.80
2019-05-12T12:57:19.307Z,2.80
2019-05-12T12:59:51.274Z,2.70
2019-05-12T13:02:20.146Z,3.00
2019-05-12T13:04:50.463Z,2.85
2019-05-12T13:07:19.992Z,2.80
2019-05-12T13:09:55.026Z,3.17
2019-05-12T13:12:20.734Z,2.72
2019-05-12T13:14:50.205Z,2.98
2019-05-12T13:17:19.636Z,2.90
2019-05-12T13:19:53.993Z,2.87
2019-05-12T13:22:20.360Z,2.72
2019-05-12T13:24:49.840Z,2.80
2019-05-12T13:27:24.419Z,2.52
2019-05-12T13:29:50.625Z,3.05
2019-05-12T13:32:25.912Z,2.35
2019-05-12T13:34:52.018Z,2.30
2019-05-12T13:37:23.172Z,2.20
2019-05-12T13:39:56.997Z,2.67
2019-05-12T13:42:24.251Z,2.33
2019-05-12T13:44:53.683Z,2.30
2019-05-12T13:47:23.079Z,2.10
2019-05-12T13:49:54.438Z,2.50
2019-05-12T13:52:26.402Z,2.02
2019-05-12T13:54:54.918Z,3.05
2019-05-12T13:57:24.334Z,3.30
2019-05-12T14:00:05.527Z,2.42
2019-05-12T14:02:24.937Z,2.98
2019-05-12T14:05:00.337Z,3.00
2019-05-12T14:07:27.009Z,2.73
2019-05-12T14:09:56.480Z,2.93
2019-05-12T14:12:25.897Z,3.03
2019-05-12T14:14:55.298Z,2.77
2019-05-12T14:17:24.889Z,2.90
2019-05-12T14:19:54.455Z,2.58
2019-05-12T14:22:26.319Z,3.00
2019-05-12T14:24:55.022Z,2.53
2019-05-12T14:27:28.587Z,3.00
2019-05-12T14:30:00.758Z,3.50
2019-05-12T14:32:26.896Z,3.00
2019-05-12T14:35:00.562Z,3.53
2019-05-12T14:37:27.542Z,3.37
2019-05-12T14:39:57.055Z,2.70
2019-05-12T14:42:34.810Z,3.27
2019-05-12T14:44:57.745Z,2.80
2019-05-12T14:47:30.023Z,3.10
2019-05-12T14:49:58.302Z,2.67
2019-05-12T14:52:27.786Z,2.70
2019-05-12T14:54:57.267Z,2.77
2019-05-12T14:57:29.366Z,3.10
2019-05-12T14:59:57.911Z,3.30
2019-05-12T15:02:29.417Z,3.25
2019-05-12T15:05:00.239Z,3.08
2019-05-12T15:07:29.929Z,2.73
2019-05-12T15:10:02.496Z,2.97
2019-05-12T15:12:30.577Z,3.03
2019-05-12T15:15:00.044Z,3.00
2019-05-12T15:17:29.491Z,3.43
2019-05-12T15:20:00.301Z,2.90
2019-05-12T15:22:30.221Z,2.93
2019-05-12T15:25:02.694Z,2.80
2019-05-12T15:27:41.984Z,2.70
2019-05-12T15:30:04.170Z,2.90
2019-05-12T15:32:34.147Z,3.20
2019-05-12T15:35:03.966Z,2.87
2019-05-12T15:37:36.956Z,3.00
2019-05-12T15:40:05.349Z,2.97
2019-05-12T15:42:34.804Z,2.93
2019-05-12T15:45:06.404Z,2.70
2019-05-12T15:47:35.722Z,2.97
2019-05-12T15:50:05.968Z,2.83
2019-05-12T15:52:42.241Z,2.80
2019-05-12T15:55:07.065Z,2.90
2019-05-12T15:57:36.590Z,2.80
2019-05-12T16:00:06.729Z,2.90
2019-05-12T16:02:36.127Z,3.10
2019-05-12T16:05:06.007Z,2.67
2019-05-12T16:07:39.445Z,2.57
2019-05-12T16:10:07.362Z,4.23
2019-05-12T16:12:37.010Z,5.55
2019-05-12T16:15:11.398Z,3.30
2019-05-12T16:17:38.345Z,3.70
2019-05-12T16:20:08.019Z,3.60
2019-05-12T16:22:44.330Z,2.63
2019-05-12T16:25:09.611Z,4.73
2019-05-12T16:27:39.045Z,7.07
2019-05-12T16:30:08.993Z,5.33
2019-05-12T16:32:42.634Z,4.17
2019-05-12T16:35:09.771Z,3.27
2019-05-12T16:37:39.152Z,2.93
2019-05-12T16:40:09.169Z,2.33
2019-05-12T16:42:40.817Z,2.60
2019-05-12T16:45:10.416Z,3.10
2019-05-12T16:47:40.039Z,2.40
2019-05-12T16:50:15.754Z,2.33
2019-05-12T16:52:42.780Z,2.37
2019-05-12T16:55:12.584Z,2.63
2019-05-12T16:57:47.485Z,2.23
2019-05-12T17:00:14.135Z,2.80
2019-05-12T17:02:52.101Z,2.93
2019-05-12T17:05:19.991Z,2.10
2019-05-12T17:07:50.331Z,2.93
2019-05-12T17:10:17.747Z,3.50
2019-05-12T17:12:48.472Z,3.20
2019-05-12T17:15:18.124Z,3.13
2019-05-12T17:17:50.813Z,2.77
2019-05-12T17:20:18.851Z,6.20
2019-05-12T17:22:54.569Z,3.20
2019-05-12T17:25:19.545Z,4.57
2019-05-12T17:27:48.979Z,2.77
2019-05-12T17:30:18.762Z,2.43
2019-05-12T17:32:58.189Z,3.13
2019-05-12T17:35:20.335Z,3.03
2019-05-12T17:37:50.736Z,2.30
2019-05-12T17:40:20.524Z,2.47
2019-05-12T17:42:50.063Z,2.30
2019-05-12T17:45:20.644Z,2.20
2019-05-12T17:47:55.895Z,2.43
2019-05-12T17:50:24.043Z,2.37
2019-05-12T17:52:58.619Z,2.63
2019-05-12T17:55:24.282Z,2.67
2019-05-12T17:57:56.160Z,2.50
2019-05-12T18:00:25.589Z,1.80
2019-05-12T18:03:14.185Z,2.17
2019-05-12T18:05:26.309Z,2.20
2019-05-12T18:07:55.789Z,2.80
2019-05-12T18:10:25.461Z,3.00
2019-05-12T18:12:54.995Z,2.80
2019-05-12T18:15:32.399Z,2.60
2019-05-12T18:17:55.714Z,2.33
2019-05-12T18:20:25.315Z,2.40
2019-05-12T18:22:54.700Z,2.70
2019-05-12T18:25:30.335Z,2.27
2019-05-12T18:27:55.532Z,2.70
2019-05-12T18:30:25.100Z,2.43
2019-05-12T18:33:04.032Z,2.53
2019-05-12T18:35:26.781Z,2.30
2019-05-12T18:37:56.259Z,2.47
2019-05-12T18:40:28.060Z,2.20
2019-05-12T18:42:56.955Z,2.27
2019-05-12T18:45:27.643Z,1.83
2019-05-12T18:47:57.122Z,1.87
2019-05-12T18:50:31.627Z,2.00
2019-05-12T18:53:00.529Z,1.90
2019-05-12T18:55:35.749Z,1.53
2019-05-12T18:58:04.137Z,1.60
2019-05-12T19:00:33.929Z,1.73
2019-05-12T19:03:06.170Z,1.77
2019-05-12T19:05:34.709Z,1.83
2019-05-12T19:08:04.204Z,2.43
2019-05-12T19:10:38.468Z,1.80
2019-05-12T19:13:06.682Z,1.53
2019-05-12T19:15:36.281Z,1.50
2019-05-12T19:18:05.825Z,2.30
2019-05-12T19:20:36.128Z,1.70
2019-05-12T19:23:06.430Z,1.83
2019-05-12T19:25:40.350Z,1.73
2019-05-12T19:28:10.544Z,2.20
2019-05-12T19:30:38.155Z,1.87
2019-05-12T19:33:10.727Z,1.70
2019-05-12T19:35:38.919Z,2.10
2019-05-12T19:38:08.379Z,1.70
2019-05-12T19:40:37.923Z,1.70
2019-05-12T19:43:08.370Z,2.00
2019-05-12T19:45:37.952Z,2.33
2019-05-12T19:48:07.470Z,2.50
2019-05-12T19:50:36.951Z,2.60
2019-05-12T19:53:06.447Z,2.87
2019-05-12T19:55:35.970Z,2.27
2019-05-12T19:58:11.181Z,2.73
2019-05-12T20:00:36.591Z,2.20
2019-05-12T20:03:08.554Z,2.70
2019-05-12T20:05:37.347Z,2.83
2019-05-12T20:08:06.842Z,2.90
2019-05-12T20:10:44.670Z,2.60
2019-05-12T20:13:07.530Z,3.17
2019-05-12T20:15:41.022Z,3.23
2019-05-12T20:18:08.169Z,3.60
2019-05-12T20:20:41.699Z,3.40
2019-05-12T20:23:09.011Z,3.87
2019-05-12T20:25:38.458Z,3.93
2019-05-12T20:28:11.323Z,3.90
2019-05-12T20:30:39.272Z,4.27
2019-05-12T20:33:08.693Z,4.43
2019-05-12T20:35:39.195Z,5.00
2019-05-12T20:38:09.576Z,5.20
2019-05-12T20:40:39.920Z,5.27
2019-05-12T20:43:13.917Z,5.27
2019-05-12T20:45:42.411Z,5.20
2019-05-12T20:48:14.281Z,5.20
2019-05-12T20:50:43.597Z,5.03
2019-05-12T20:53:14.278Z,5.10
2019-05-12T20:55:46.138Z,4.80
2019-05-12T20:58:15.531Z,5.33
2019-05-12T21:00:49.969Z,5.17
2019-05-12T21:03:16.250Z,5.30
2019-05-12T21:05:50.547Z,5.43
2019-05-12T21:08:16.837Z,5.30
2019-05-12T21:10:46.343Z,4.90
2019-05-12T21:13:20.324Z,5.57
2019-05-12T21:15:47.044Z,5.10
2019-05-12T21:18:16.478Z,5.63
2019-05-12T21:20:46.570Z,6.07
2019-05-12T21:23:17.109Z,5.50
2019-05-12T21:25:52.472Z,5.67
2019-05-12T21:28:17.847Z,5.10
2019-05-12T21:30:48.061Z,5.60
2019-05-12T21:33:18.478Z,5.90
2019-05-12T21:35:47.871Z,5.70
2019-05-12T21:38:18.773Z,5.33
2019-05-12T21:40:48.594Z,5.60
2019-05-12T21:43:18.068Z,5.67
2019-05-12T21:45:47.578Z,5.57
2019-05-12T21:48:23.889Z,5.83
2019-05-12T21:50:48.302Z,6.37
2019-05-12T21:53:20.653Z,6.43
2019-05-12T21:55:48.903Z,6.50
2019-05-12T21:58:18.393Z,5.97
2019-05-12T22:00:59.488Z,7.20
2019-05-12T22:03:24.298Z,7.53
2019-05-12T22:05:55.649Z,7.10
2019-05-12T22:08:26.376Z,8.30
2019-05-12T22:11:00.698Z,7.27
2019-05-12T22:13:27.360Z,8.37
2019-05-12T22:15:58.936Z,8.13
2019-05-12T22:18:29.383Z,8.23
2019-05-12T22:21:01.513Z,8.10
2019-05-12T22:23:33.761Z,8.10
2019-05-12T22:26:04.281Z,8.80
2019-05-12T22:28:34.371Z,8.33
2019-05-12T22:31:04.000Z,9.43
2019-05-12T22:33:33.586Z,9.00
2019-05-12T22:36:13.993Z,9.37
2019-05-12T22:38:34.263Z,9.53
2019-05-12T22:41:04.338Z,10.97
2019-05-12T22:43:40.980Z,10.10
2019-05-12T22:46:05.253Z,10.43
2019-05-12T22:48:37.303Z,10.43
2019-05-12T22:51:17.628Z,11.37
2019-05-12T22:53:37.611Z,12.03
2019-05-12T22:56:12.414Z,11.47
2019-05-12T22:58:38.374Z,12.00
2019-05-12T23:01:07.851Z,12.10
2019-05-12T23:03:37.311Z,12.60
2019-05-12T23:06:23.315Z,13.63
2019-05-12T23:08:45.101Z,13.43
2019-05-12T23:11:11.009Z,13.00
2019-05-12T23:13:42.649Z,13.57
2019-05-12T23:16:14.043Z,14.30
2019-05-12T23:18:44.442Z,14.10
2019-05-12T23:21:17.504Z,14.20
2019-05-12T23:23:50.014Z,15.00
2019-05-12T23:26:16.442Z,14.67
2019-05-12T23:28:50.073Z,14.40
2019-05-12T23:31:19.604Z,15.73
2019-05-12T23:33:48.310Z,15.43
2019-05-12T23:36:19.740Z,16.07
2019-05-12T23:38:54.487Z,15.10
2019-05-12T23:41:20.133Z,16.30
2019-05-12T23:43:49.664Z,15.53
2019-05-12T23:46:19.244Z,14.80
2019-05-12T23:48:48.639Z,16.07
2019-05-12T23:51:18.091Z,15.40
2019-05-12T23:53:47.581Z,15.70
2019-05-12T23:56:17.070Z,16.03
2019-05-12T23:58:46.503Z,16.03
